sensor_id;sensor_type;location;lat;lon;timestamp;P1;durP1;ratioP1;P2;durP2;ratioP2
41693;SDS011;27377;50.666;9.150;2023-04-25T00:02:00;10.43;;;7.17;;
41693;SDS011;27377;50.666;9.150;2023-04-25T00:04:25;9.67;;;7.33;;
41693;SDS011;27377;50.666;9.150;2023-04-25T00:06:53;10.13;;;7.30;;
41693;SDS011;27377;50.666;9.150;2023-04-25T00:09:19;10.15;;;7.43;;
41693;SDS011;27377;50.666;9.150;2023-04-25T00:11:44;9.93;;;7.30;;
41693;SDS011;27377;50.666;9.150;2023-04-25T00:14:10;10.00;;;7.43;;
41693;SDS011;27377;50.666;9.150;2023-04-25T00:16:35;11.75;;;7.60;;
41693;SDS011;27377;50.666;9.150;2023-04-25T00:19:01;11.07;;;7.72;;
41693;SDS011;27377;50.666;9.150;2023-04-25T00:21:27;10.75;;;7.72;;
41693;SDS011;27377;50.666;9.150;2023-04-25T00:23:53;12.02;;;7.47;;
41693;SDS011;27377;50.666;9.150;2023-04-25T00:26:19;11.63;;;7.50;;
41693;SDS011;27377;50.666;9.150;2023-04-25T00:28:46;10.85;;;7.30;;
41693;SDS011;27377;50.666;9.150;2023-04-25T00:31:12;11.48;;;7.28;;
41693;SDS011;27377;50.666;9.150;2023-04-25T00:33:37;11.85;;;6.70;;
41693;SDS011;27377;50.666;9.150;2023-04-25T00:36:03;11.60;;;6.57;;
41693;SDS011;27377;50.666;9.150;2023-04-25T00:38:29;8.73;;;5.72;;
41693;SDS011;27377;50.666;9.150;2023-04-25T00:40:54;11.67;;;5.70;;
41693;SDS011;27377;50.666;9.150;2023-04-25T00:43:20;11.03;;;5.63;;
41693;SDS011;27377;50.666;9.150;2023-04-25T00:45:46;9.18;;;5.30;;
41693;SDS011;27377;50.666;9.150;2023-04-25T00:48:16;10.27;;;4.78;;
41693;SDS011;27377;50.666;9.150;2023-04-25T00:50:43;9.55;;;5.00;;
41693;SDS011;27377;50.666;9.150;2023-04-25T00:53:16;9.45;;;4.90;;
41693;SDS011;27377;50.666;9.150;2023-04-25T00:55:41;9.93;;;4.90;;
41693;SDS011;27377;50.666;9.150;2023-04-25T00:58:07;12.63;;;5.05;;
41693;SDS011;27377;50.666;9.150;2023-04-25T01:00:32;9.43;;;4.38;;
41693;SDS011;27377;50.666;9.150;2023-04-25T01:02:58;9.32;;;4.72;;
41693;SDS011;27377;50.666;9.150;2023-04-25T01:05:25;9.52;;;4.47;;
41693;SDS011;27377;50.666;9.150;2023-04-25T01:07:50;8.57;;;3.72;;
41693;SDS011;27377;50.666;9.150;2023-04-25T01:10:16;7.22;;;3.90;;
41693;SDS011;27377;50.666;9.150;2023-04-25T01:12:41;8.67;;;4.33;;
41693;SDS011;27377;50.666;9.150;2023-04-25T01:15:07;9.60;;;4.13;;
41693;SDS011;27377;50.666;9.150;2023-04-25T01:17:34;8.30;;;3.93;;
41693;SDS011;27377;50.666;9.150;2023-04-25T01:20:00;10.18;;;3.95;;
41693;SDS011;27377;50.666;9.150;2023-04-25T01:22:28;6.20;;;3.50;;
41693;SDS011;27377;50.666;9.150;2023-04-25T01:24:54;7.47;;;3.65;;
41693;SDS011;27377;50.666;9.150;2023-04-25T01:27:20;10.35;;;3.88;;
41693;SDS011;27377;50.666;9.150;2023-04-25T01:29:46;8.35;;;3.60;;
41693;SDS011;27377;50.666;9.150;2023-04-25T01:32:12;8.30;;;3.55;;
41693;SDS011;27377;50.666;9.150;2023-04-25T01:34:38;7.90;;;3.58;;
41693;SDS011;27377;50.666;9.150;2023-04-25T01:37:04;7.72;;;3.65;;
41693;SDS011;27377;50.666;9.150;2023-04-25T01:39:30;7.50;;;2.90;;
41693;SDS011;27377;50.666;9.150;2023-04-25T01:41:55;9.50;;;3.20;;
41693;SDS011;27377;50.666;9.150;2023-04-25T01:44:21;9.55;;;2.90;;
41693;SDS011;27377;50.666;9.150;2023-04-25T01:46:47;7.78;;;2.90;;
41693;SDS011;27377;50.666;9.150;2023-04-25T01:49:12;7.10;;;2.67;;
41693;SDS011;27377;50.666;9.150;2023-04-25T01:51:38;7.88;;;2.97;;
41693;SDS011;27377;50.666;9.150;2023-04-25T01:54:03;7.40;;;2.65;;
41693;SDS011;27377;50.666;9.150;2023-04-25T01:56:30;7.95;;;2.58;;
41693;SDS011;27377;50.666;9.150;2023-04-25T01:58:56;7.85;;;2.90;;
41693;SDS011;27377;50.666;9.150;2023-04-25T02:01:23;7.43;;;2.95;;
41693;SDS011;27377;50.666;9.150;2023-04-25T02:03:48;5.97;;;2.50;;
41693;SDS011;27377;50.666;9.150;2023-04-25T02:06:14;8.73;;;2.73;;
41693;SDS011;27377;50.666;9.150;2023-04-25T02:08:39;6.73;;;2.60;;
41693;SDS011;27377;50.666;9.150;2023-04-25T02:11:05;10.73;;;2.80;;
41693;SDS011;27377;50.666;9.150;2023-04-25T02:13:30;5.77;;;2.30;;
41693;SDS011;27377;50.666;9.150;2023-04-25T02:15:58;6.13;;;2.42;;
41693;SDS011;27377;50.666;9.150;2023-04-25T02:18:23;6.43;;;2.50;;
41693;SDS011;27377;50.666;9.150;2023-04-25T02:20:50;7.88;;;2.63;;
41693;SDS011;27377;50.666;9.150;2023-04-25T02:23:15;7.95;;;2.67;;
41693;SDS011;27377;50.666;9.150;2023-04-25T02:25:41;6.18;;;2.58;;
41693;SDS011;27377;50.666;9.150;2023-04-25T02:28:07;7.70;;;2.57;;
41693;SDS011;27377;50.666;9.150;2023-04-25T02:30:32;7.60;;;3.00;;
41693;SDS011;27377;50.666;9.150;2023-04-25T02:32:58;9.50;;;3.17;;
41693;SDS011;27377;50.666;9.150;2023-04-25T02:35:24;8.23;;;3.13;;
41693;SDS011;27377;50.666;9.150;2023-04-25T02:37:52;7.30;;;2.65;;
41693;SDS011;27377;50.666;9.150;2023-04-25T02:40:18;7.70;;;2.70;;
41693;SDS011;27377;50.666;9.150;2023-04-25T02:42:43;6.72;;;2.67;;
41693;SDS011;27377;50.666;9.150;2023-04-25T02:45:10;7.85;;;2.70;;
41693;SDS011;27377;50.666;9.150;2023-04-25T02:47:36;7.37;;;2.57;;
41693;SDS011;27377;50.666;9.150;2023-04-25T02:50:03;6.70;;;2.50;;
41693;SDS011;27377;50.666;9.150;2023-04-25T02:52:29;8.00;;;2.47;;
41693;SDS011;27377;50.666;9.150;2023-04-25T02:54:55;8.47;;;2.70;;
41693;SDS011;27377;50.666;9.150;2023-04-25T02:57:20;8.13;;;2.50;;
41693;SDS011;27377;50.666;9.150;2023-04-25T02:59:46;8.50;;;3.00;;
41693;SDS011;27377;50.666;9.150;2023-04-25T03:02:12;7.53;;;2.85;;
41693;SDS011;27377;50.666;9.150;2023-04-25T03:04:37;8.43;;;2.65;;
41693;SDS011;27377;50.666;9.150;2023-04-25T03:07:03;8.27;;;2.53;;
41693;SDS011;27377;50.666;9.150;2023-04-25T03:09:29;7.85;;;2.63;;
41693;SDS011;27377;50.666;9.150;2023-04-25T03:11:55;9.60;;;2.80;;
41693;SDS011;27377;50.666;9.150;2023-04-25T03:14:21;7.80;;;2.90;;
41693;SDS011;27377;50.666;9.150;2023-04-25T03:16:46;10.27;;;3.07;;
41693;SDS011;27377;50.666;9.150;2023-04-25T03:19:12;9.53;;;2.97;;
41693;SDS011;27377;50.666;9.150;2023-04-25T03:21:37;9.13;;;3.10;;
41693;SDS011;27377;50.666;9.150;2023-04-25T03:24:03;9.30;;;3.23;;
41693;SDS011;27377;50.666;9.150;2023-04-25T03:26:30;9.35;;;3.38;;
41693;SDS011;27377;50.666;9.150;2023-04-25T03:28:56;10.10;;;3.73;;
41693;SDS011;27377;50.666;9.150;2023-04-25T03:31:22;11.63;;;3.67;;
41693;SDS011;27377;50.666;9.150;2023-04-25T03:33:47;11.07;;;3.87;;
41693;SDS011;27377;50.666;9.150;2023-04-25T03:36:13;10.40;;;3.60;;
41693;SDS011;27377;50.666;9.150;2023-04-25T03:38:38;10.98;;;3.97;;
41693;SDS011;27377;50.666;9.150;2023-04-25T03:41:06;10.80;;;3.53;;
41693;SDS011;27377;50.666;9.150;2023-04-25T03:43:32;9.75;;;3.50;;
41693;SDS011;27377;50.666;9.150;2023-04-25T03:45:57;11.13;;;3.50;;
41693;SDS011;27377;50.666;9.150;2023-04-25T03:48:23;10.03;;;3.53;;
41693;SDS011;27377;50.666;9.150;2023-04-25T03:50:51;10.10;;;3.55;;
41693;SDS011;27377;50.666;9.150;2023-04-25T03:53:17;7.57;;;3.60;;
41693;SDS011;27377;50.666;9.150;2023-04-25T03:55:42;10.52;;;4.10;;
41693;SDS011;27377;50.666;9.150;2023-04-25T03:58:08;10.25;;;3.92;;
41693;SDS011;27377;50.666;9.150;2023-04-25T04:00:34;10.85;;;3.75;;
41693;SDS011;27377;50.666;9.150;2023-04-25T04:03:00;10.82;;;3.60;;
41693;SDS011;27377;50.666;9.150;2023-04-25T04:05:26;10.00;;;3.57;;
41693;SDS011;27377;50.666;9.150;2023-04-25T04:07:52;9.32;;;3.30;;
41693;SDS011;27377;50.666;9.150;2023-04-25T04:10:18;9.75;;;3.10;;
41693;SDS011;27377;50.666;9.150;2023-04-25T04:12:43;11.43;;;3.90;;
41693;SDS011;27377;50.666;9.150;2023-04-25T04:15:09;8.73;;;3.40;;
41693;SDS011;27377;50.666;9.150;2023-04-25T04:17:35;8.18;;;3.40;;
41693;SDS011;27377;50.666;9.150;2023-04-25T04:20:01;11.53;;;3.60;;
41693;SDS011;27377;50.666;9.150;2023-04-25T04:22:28;10.55;;;4.15;;
41693;SDS011;27377;50.666;9.150;2023-04-25T04:24:54;14.23;;;4.75;;
41693;SDS011;27377;50.666;9.150;2023-04-25T04:27:21;12.60;;;4.50;;
41693;SDS011;27377;50.666;9.150;2023-04-25T04:29:47;14.48;;;4.70;;
41693;SDS011;27377;50.666;9.150;2023-04-25T04:32:14;13.13;;;4.28;;
41693;SDS011;27377;50.666;9.150;2023-04-25T04:34:40;11.43;;;4.18;;
41693;SDS011;27377;50.666;9.150;2023-04-25T04:37:06;13.03;;;4.90;;
41693;SDS011;27377;50.666;9.150;2023-04-25T04:39:32;15.38;;;4.63;;
41693;SDS011;27377;50.666;9.150;2023-04-25T04:41:58;11.30;;;4.30;;
41693;SDS011;27377;50.666;9.150;2023-04-25T04:44:26;13.30;;;4.60;;
41693;SDS011;27377;50.666;9.150;2023-04-25T04:46:52;12.87;;;4.53;;
41693;SDS011;27377;50.666;9.150;2023-04-25T04:49:18;10.82;;;4.50;;
41693;SDS011;27377;50.666;9.150;2023-04-25T04:51:44;12.43;;;4.60;;
41693;SDS011;27377;50.666;9.150;2023-04-25T04:54:09;10.67;;;4.50;;
41693;SDS011;27377;50.666;9.150;2023-04-25T04:56:35;12.23;;;4.90;;
41693;SDS011;27377;50.666;9.150;2023-04-25T04:59:01;11.80;;;4.67;;
41693;SDS011;27377;50.666;9.150;2023-04-25T05:01:28;10.80;;;4.97;;
41693;SDS011;27377;50.666;9.150;2023-04-25T05:03:55;9.80;;;4.50;;
41693;SDS011;27377;50.666;9.150;2023-04-25T05:06:25;12.27;;;4.72;;
41693;SDS011;27377;50.666;9.150;2023-04-25T05:08:51;13.55;;;5.22;;
41693;SDS011;27377;50.666;9.150;2023-04-25T05:11:18;12.30;;;4.93;;
41693;SDS011;27377;50.666;9.150;2023-04-25T05:13:44;10.02;;;4.60;;
41693;SDS011;27377;50.666;9.150;2023-04-25T05:16:10;11.25;;;5.07;;
41693;SDS011;27377;50.666;9.150;2023-04-25T05:18:36;12.60;;;5.18;;
41693;SDS011;27377;50.666;9.150;2023-04-25T05:21:02;9.68;;;5.00;;
41693;SDS011;27377;50.666;9.150;2023-04-25T05:23:28;12.85;;;5.35;;
41693;SDS011;27377;50.666;9.150;2023-04-25T05:25:55;10.95;;;4.90;;
41693;SDS011;27377;50.666;9.150;2023-04-25T05:28:20;9.48;;;4.95;;
41693;SDS011;27377;50.666;9.150;2023-04-25T05:30:46;12.07;;;5.00;;
41693;SDS011;27377;50.666;9.150;2023-04-25T05:33:12;25.90;;;11.63;;
41693;SDS011;27377;50.666;9.150;2023-04-25T05:35:38;24.60;;;14.30;;
41693;SDS011;27377;50.666;9.150;2023-04-25T05:38:04;16.90;;;10.40;;
41693;SDS011;27377;50.666;9.150;2023-04-25T05:40:29;17.07;;;9.43;;
41693;SDS011;27377;50.666;9.150;2023-04-25T05:42:55;19.10;;;12.20;;
41693;SDS011;27377;50.666;9.150;2023-04-25T05:45:20;11.70;;;7.38;;
41693;SDS011;27377;50.666;9.150;2023-04-25T05:47:46;9.55;;;5.65;;
41693;SDS011;27377;50.666;9.150;2023-04-25T05:50:11;10.70;;;6.38;;
41693;SDS011;27377;50.666;9.150;2023-04-25T05:52:37;10.07;;;5.55;;
41693;SDS011;27377;50.666;9.150;2023-04-25T05:55:03;10.27;;;4.95;;
41693;SDS011;27377;50.666;9.150;2023-04-25T05:57:29;9.80;;;5.03;;
41693;SDS011;27377;50.666;9.150;2023-04-25T05:59:55;12.07;;;4.80;;
41693;SDS011;27377;50.666;9.150;2023-04-25T06:02:20;10.37;;;5.00;;
41693;SDS011;27377;50.666;9.150;2023-04-25T06:04:46;9.97;;;4.90;;
41693;SDS011;27377;50.666;9.150;2023-04-25T06:07:14;10.77;;;4.93;;
41693;SDS011;27377;50.666;9.150;2023-04-25T06:09:39;9.70;;;4.87;;
41693;SDS011;27377;50.666;9.150;2023-04-25T06:12:06;8.52;;;4.60;;
41693;SDS011;27377;50.666;9.150;2023-04-25T06:14:32;9.73;;;4.85;;
41693;SDS011;27377;50.666;9.150;2023-04-25T06:16:58;9.33;;;4.73;;
41693;SDS011;27377;50.666;9.150;2023-04-25T06:19:24;9.02;;;4.55;;
41693;SDS011;27377;50.666;9.150;2023-04-25T06:21:49;9.07;;;4.90;;
41693;SDS011;27377;50.666;9.150;2023-04-25T06:24:15;10.82;;;5.20;;
41693;SDS011;27377;50.666;9.150;2023-04-25T06:26:40;9.38;;;5.05;;
41693;SDS011;27377;50.666;9.150;2023-04-25T06:29:06;8.50;;;4.60;;
41693;SDS011;27377;50.666;9.150;2023-04-25T06:31:31;10.10;;;5.03;;
41693;SDS011;27377;50.666;9.150;2023-04-25T06:33:58;8.45;;;4.10;;
41693;SDS011;27377;50.666;9.150;2023-04-25T06:36:24;7.37;;;4.37;;
41693;SDS011;27377;50.666;9.150;2023-04-25T06:38:52;7.78;;;4.32;;
41693;SDS011;27377;50.666;9.150;2023-04-25T06:41:18;9.37;;;4.60;;
41693;SDS011;27377;50.666;9.150;2023-04-25T06:43:44;9.20;;;4.60;;
41693;SDS011;27377;50.666;9.150;2023-04-25T06:46:10;8.07;;;4.43;;
41693;SDS011;27377;50.666;9.150;2023-04-25T06:48:36;9.53;;;4.50;;
41693;SDS011;27377;50.666;9.150;2023-04-25T06:51:01;8.40;;;4.20;;
41693;SDS011;27377;50.666;9.150;2023-04-25T06:53:27;6.63;;;4.10;;
41693;SDS011;27377;50.666;9.150;2023-04-25T06:55:53;8.23;;;4.60;;
41693;SDS011;27377;50.666;9.150;2023-04-25T06:58:18;8.90;;;4.50;;
41693;SDS011;27377;50.666;9.150;2023-04-25T07:00:44;6.53;;;4.20;;
41693;SDS011;27377;50.666;9.150;2023-04-25T07:03:09;6.88;;;3.88;;
41693;SDS011;27377;50.666;9.150;2023-04-25T07:05:35;8.05;;;4.05;;
41693;SDS011;27377;50.666;9.150;2023-04-25T07:08:00;7.00;;;4.00;;
41693;SDS011;27377;50.666;9.150;2023-04-25T07:10:26;6.57;;;3.97;;
41693;SDS011;27377;50.666;9.150;2023-04-25T07:12:52;6.93;;;3.80;;
41693;SDS011;27377;50.666;9.150;2023-04-25T07:15:17;8.47;;;3.90;;
41693;SDS011;27377;50.666;9.150;2023-04-25T07:17:43;6.80;;;3.63;;
41693;SDS011;27377;50.666;9.150;2023-04-25T07:20:08;7.10;;;4.20;;
41693;SDS011;27377;50.666;9.150;2023-04-25T07:22:35;6.68;;;3.50;;
41693;SDS011;27377;50.666;9.150;2023-04-25T07:25:00;5.70;;;3.58;;
41693;SDS011;27377;50.666;9.150;2023-04-25T07:27:26;7.63;;;3.85;;
41693;SDS011;27377;50.666;9.150;2023-04-25T07:29:51;6.47;;;3.67;;
41693;SDS011;27377;50.666;9.150;2023-04-25T07:32:17;6.87;;;4.07;;
41693;SDS011;27377;50.666;9.150;2023-04-25T07:34:42;7.60;;;4.00;;
41693;SDS011;27377;50.666;9.150;2023-04-25T07:37:08;6.87;;;4.30;;
41693;SDS011;27377;50.666;9.150;2023-04-25T07:39:33;10.03;;;5.03;;
41693;SDS011;27377;50.666;9.150;2023-04-25T07:42:00;8.10;;;4.68;;
41693;SDS011;27377;50.666;9.150;2023-04-25T07:44:26;7.72;;;4.00;;
41693;SDS011;27377;50.666;9.150;2023-04-25T07:46:52;7.57;;;4.37;;
41693;SDS011;27377;50.666;9.150;2023-04-25T07:49:18;8.80;;;4.70;;
41693;SDS011;27377;50.666;9.150;2023-04-25T07:51:43;9.00;;;4.80;;
41693;SDS011;27377;50.666;9.150;2023-04-25T07:54:09;9.97;;;4.87;;
41693;SDS011;27377;50.666;9.150;2023-04-25T07:56:37;8.60;;;5.10;;
41693;SDS011;27377;50.666;9.150;2023-04-25T07:59:02;9.15;;;5.00;;
41693;SDS011;27377;50.666;9.150;2023-04-25T08:01:28;9.40;;;5.00;;
41693;SDS011;27377;50.666;9.150;2023-04-25T08:03:53;8.05;;;4.97;;
41693;SDS011;27377;50.666;9.150;2023-04-25T08:06:19;8.47;;;4.97;;
41693;SDS011;27377;50.666;9.150;2023-04-25T08:08:45;8.00;;;4.57;;
41693;SDS011;27377;50.666;9.150;2023-04-25T08:11:10;8.00;;;4.20;;
41693;SDS011;27377;50.666;9.150;2023-04-25T08:13:36;6.95;;;4.10;;
41693;SDS011;27377;50.666;9.150;2023-04-25T08:16:01;7.53;;;4.30;;
41693;SDS011;27377;50.666;9.150;2023-04-25T08:18:27;8.65;;;4.40;;
41693;SDS011;27377;50.666;9.150;2023-04-25T08:20:52;7.20;;;4.23;;
41693;SDS011;27377;50.666;9.150;2023-04-25T08:23:18;8.27;;;4.13;;
41693;SDS011;27377;50.666;9.150;2023-04-25T08:25:43;6.90;;;3.45;;
41693;SDS011;27377;50.666;9.150;2023-04-25T08:28:09;5.38;;;3.50;;
41693;SDS011;27377;50.666;9.150;2023-04-25T08:30:34;5.35;;;3.10;;
41693;SDS011;27377;50.666;9.150;2023-04-25T08:33:00;5.15;;;3.10;;
41693;SDS011;27377;50.666;9.150;2023-04-25T08:35:25;4.88;;;2.70;;
41693;SDS011;27377;50.666;9.150;2023-04-25T08:37:51;4.93;;;2.58;;
41693;SDS011;27377;50.666;9.150;2023-04-25T08:40:17;4.97;;;2.47;;
41693;SDS011;27377;50.666;9.150;2023-04-25T08:42:44;5.70;;;2.40;;
41693;SDS011;27377;50.666;9.150;2023-04-25T08:45:10;5.35;;;3.10;;
41693;SDS011;27377;50.666;9.150;2023-04-25T08:47:37;4.63;;;2.67;;
41693;SDS011;27377;50.666;9.150;2023-04-25T08:50:04;5.00;;;2.88;;
41693;SDS011;27377;50.666;9.150;2023-04-25T08:52:32;5.30;;;2.80;;
41693;SDS011;27377;50.666;9.150;2023-04-25T08:55:03;6.07;;;3.00;;
41693;SDS011;27377;50.666;9.150;2023-04-25T08:57:31;5.00;;;3.00;;
41693;SDS011;27377;50.666;9.150;2023-04-25T08:59:58;5.87;;;2.93;;
41693;SDS011;27377;50.666;9.150;2023-04-25T09:02:25;6.17;;;3.07;;
41693;SDS011;27377;50.666;9.150;2023-04-25T09:04:51;4.83;;;2.83;;
41693;SDS011;27377;50.666;9.150;2023-04-25T09:07:19;5.78;;;2.88;;
41693;SDS011;27377;50.666;9.150;2023-04-25T09:09:46;5.70;;;2.65;;
41693;SDS011;27377;50.666;9.150;2023-04-25T09:12:12;5.82;;;2.60;;
41693;SDS011;27377;50.666;9.150;2023-04-25T09:14:38;5.57;;;2.40;;
41693;SDS011;27377;50.666;9.150;2023-04-25T09:17:04;6.10;;;2.60;;
41693;SDS011;27377;50.666;9.150;2023-04-25T09:19:31;6.40;;;2.40;;
41693;SDS011;27377;50.666;9.150;2023-04-25T09:22:00;7.30;;;2.40;;
41693;SDS011;27377;50.666;9.150;2023-04-25T09:26:57;8.20;;;2.20;;
41693;SDS011;27377;50.666;9.150;2023-04-25T09:29:29;6.23;;;2.23;;
41693;SDS011;27377;50.666;9.150;2023-04-25T09:32:12;6.00;;;2.10;;
41693;SDS011;27377;50.666;9.150;2023-04-25T09:34:46;7.70;;;2.20;;
41693;SDS011;27377;50.666;9.150;2023-04-25T09:37:26;7.73;;;2.60;;
41693;SDS011;27377;50.666;9.150;2023-04-25T09:39:53;6.80;;;2.30;;
41693;SDS011;27377;50.666;9.150;2023-04-25T09:42:24;7.20;;;2.20;;
41693;SDS011;27377;50.666;9.150;2023-04-25T09:44:55;9.40;;;2.50;;
41693;SDS011;27377;50.666;9.150;2023-04-25T09:47:22;8.18;;;2.25;;
41693;SDS011;27377;50.666;9.150;2023-04-25T09:49:49;7.03;;;2.50;;
41693;SDS011;27377;50.666;9.150;2023-04-25T09:52:16;11.38;;;2.65;;
41693;SDS011;27377;50.666;9.150;2023-04-25T09:54:46;8.60;;;2.75;;
41693;SDS011;27377;50.666;9.150;2023-04-25T09:59:52;8.38;;;2.55;;
41693;SDS011;27377;50.666;9.150;2023-04-25T10:02:19;8.93;;;2.60;;
41693;SDS011;27377;50.666;9.150;2023-04-25T10:04:51;10.57;;;2.42;;
41693;SDS011;27377;50.666;9.150;2023-04-25T10:07:19;8.75;;;2.50;;
41693;SDS011;27377;50.666;9.150;2023-04-25T10:09:50;6.80;;;2.22;;
41693;SDS011;27377;50.666;9.150;2023-04-25T10:12:24;7.82;;;2.50;;
41693;SDS011;27377;50.666;9.150;2023-04-25T10:14:50;8.00;;;2.28;;
41693;SDS011;27377;50.666;9.150;2023-04-25T10:17:16;8.20;;;2.55;;
41693;SDS011;27377;50.666;9.150;2023-04-25T10:19:43;9.45;;;2.50;;
41693;SDS011;27377;50.666;9.150;2023-04-25T10:22:29;6.38;;;2.30;;
41693;SDS011;27377;50.666;9.150;2023-04-25T10:25:00;9.02;;;2.40;;
41693;SDS011;27377;50.666;9.150;2023-04-25T10:27:29;9.93;;;2.83;;
41693;SDS011;27377;50.666;9.150;2023-04-25T10:30:05;7.43;;;2.22;;
41693;SDS011;27377;50.666;9.150;2023-04-25T10:32:36;9.20;;;2.88;;
41693;SDS011;27377;50.666;9.150;2023-04-25T10:35:15;10.30;;;2.65;;
41693;SDS011;27377;50.666;9.150;2023-04-25T10:37:56;8.57;;;2.60;;
41693;SDS011;27377;50.666;9.150;2023-04-25T10:40:34;10.60;;;2.53;;
41693;SDS011;27377;50.666;9.150;2023-04-25T10:45:56;9.98;;;3.10;;
41693;SDS011;27377;50.666;9.150;2023-04-25T10:48:25;9.73;;;2.58;;
41693;SDS011;27377;50.666;9.150;2023-04-25T10:51:10;9.83;;;2.50;;
41693;SDS011;27377;50.666;9.150;2023-04-25T10:53:40;11.10;;;2.58;;
41693;SDS011;27377;50.666;9.150;2023-04-25T10:56:21;9.33;;;2.20;;
41693;SDS011;27377;50.666;9.150;2023-04-25T10:58:48;7.03;;;2.30;;
41693;SDS011;27377;50.666;9.150;2023-04-25T11:01:15;9.27;;;2.47;;
41693;SDS011;27377;50.666;9.150;2023-04-25T11:03:44;11.35;;;2.70;;
41693;SDS011;27377;50.666;9.150;2023-04-25T11:06:18;8.23;;;2.40;;
41693;SDS011;27377;50.666;9.150;2023-04-25T11:08:48;11.25;;;2.50;;
41693;SDS011;27377;50.666;9.150;2023-04-25T11:11:18;9.80;;;2.43;;
41693;SDS011;27377;50.666;9.150;2023-04-25T11:13:48;9.68;;;2.58;;
41693;SDS011;27377;50.666;9.150;2023-04-25T11:16:14;10.30;;;2.40;;
41693;SDS011;27377;50.666;9.150;2023-04-25T11:18:41;8.60;;;2.25;;
41693;SDS011;27377;50.666;9.150;2023-04-25T11:21:07;9.27;;;2.50;;
41693;SDS011;27377;50.666;9.150;2023-04-25T11:23:33;10.43;;;2.50;;
41693;SDS011;27377;50.666;9.150;2023-04-25T11:25:58;9.83;;;2.60;;
41693;SDS011;27377;50.666;9.150;2023-04-25T11:28:26;9.18;;;2.50;;
41693;SDS011;27377;50.666;9.150;2023-04-25T11:30:52;8.60;;;2.40;;
41693;SDS011;27377;50.666;9.150;2023-04-25T11:33:18;9.18;;;2.53;;
41693;SDS011;27377;50.666;9.150;2023-04-25T11:35:49;7.32;;;2.78;;
41693;SDS011;27377;50.666;9.150;2023-04-25T11:38:14;9.67;;;2.70;;
41693;SDS011;27377;50.666;9.150;2023-04-25T11:40:40;8.93;;;2.55;;
41693;SDS011;27377;50.666;9.150;2023-04-25T11:43:06;9.63;;;2.47;;
41693;SDS011;27377;50.666;9.150;2023-04-25T11:45:32;9.80;;;2.85;;
41693;SDS011;27377;50.666;9.150;2023-04-25T11:47:57;10.17;;;2.50;;
41693;SDS011;27377;50.666;9.150;2023-04-25T11:50:23;9.53;;;2.57;;
41693;SDS011;27377;50.666;9.150;2023-04-25T11:52:48;8.63;;;2.37;;
41693;SDS011;27377;50.666;9.150;2023-04-25T11:55:16;7.47;;;2.55;;
41693;SDS011;27377;50.666;9.150;2023-04-25T11:57:43;9.20;;;2.80;;
41693;SDS011;27377;50.666;9.150;2023-04-25T12:00:11;8.02;;;2.40;;
41693;SDS011;27377;50.666;9.150;2023-04-25T12:02:40;10.45;;;2.60;;
41693;SDS011;27377;50.666;9.150;2023-04-25T12:05:10;8.73;;;2.83;;
41693;SDS011;27377;50.666;9.150;2023-04-25T12:07:36;7.95;;;2.58;;
41693;SDS011;27377;50.666;9.150;2023-04-25T12:10:09;7.40;;;2.50;;
41693;SDS011;27377;50.666;9.150;2023-04-25T12:12:37;11.90;;;2.83;;
41693;SDS011;27377;50.666;9.150;2023-04-25T12:15:10;10.52;;;2.40;;
41693;SDS011;27377;50.666;9.150;2023-04-25T12:17:38;7.93;;;2.38;;
41693;SDS011;27377;50.666;9.150;2023-04-25T12:20:10;8.82;;;2.65;;
41693;SDS011;27377;50.666;9.150;2023-04-25T12:22:40;9.93;;;2.53;;
41693;SDS011;27377;50.666;9.150;2023-04-25T12:25:09;7.13;;;2.35;;
41693;SDS011;27377;50.666;9.150;2023-04-25T12:30:57;11.07;;;2.70;;
41693;SDS011;27377;50.666;9.150;2023-04-25T12:33:31;8.98;;;2.40;;
41693;SDS011;27377;50.666;9.150;2023-04-25T12:35:58;8.98;;;2.60;;
41693;SDS011;27377;50.666;9.150;2023-04-25T12:38:29;8.00;;;2.38;;
41693;SDS011;27377;50.666;9.150;2023-04-25T12:40:56;9.80;;;2.50;;
41693;SDS011;27377;50.666;9.150;2023-04-25T12:43:22;9.57;;;2.40;;
41693;SDS011;27377;50.666;9.150;2023-04-25T12:45:48;12.05;;;2.55;;
41693;SDS011;27377;50.666;9.150;2023-04-25T12:48:15;9.83;;;2.40;;
41693;SDS011;27377;50.666;9.150;2023-04-25T12:50:40;9.30;;;2.30;;
41693;SDS011;27377;50.666;9.150;2023-04-25T12:53:06;8.33;;;2.50;;
41693;SDS011;27377;50.666;9.150;2023-04-25T12:55:32;9.73;;;2.50;;
41693;SDS011;27377;50.666;9.150;2023-04-25T12:57:57;9.07;;;2.50;;
41693;SDS011;27377;50.666;9.150;2023-04-25T13:00:23;6.47;;;2.10;;
41693;SDS011;27377;50.666;9.150;2023-04-25T13:02:48;7.87;;;2.43;;
41693;SDS011;27377;50.666;9.150;2023-04-25T13:05:14;8.93;;;2.60;;
41693;SDS011;27377;50.666;9.150;2023-04-25T13:07:40;9.18;;;2.60;;
41693;SDS011;27377;50.666;9.150;2023-04-25T13:10:06;10.80;;;2.67;;
41693;SDS011;27377;50.666;9.150;2023-04-25T13:12:32;8.27;;;2.60;;
41693;SDS011;27377;50.666;9.150;2023-04-25T13:14:58;10.25;;;2.50;;
41693;SDS011;27377;50.666;9.150;2023-04-25T13:17:24;7.90;;;2.20;;
41693;SDS011;27377;50.666;9.150;2023-04-25T13:19:49;10.65;;;2.65;;
41693;SDS011;27377;50.666;9.150;2023-04-25T13:22:15;9.90;;;2.35;;
41693;SDS011;27377;50.666;9.150;2023-04-25T13:24:42;9.90;;;2.63;;
41693;SDS011;27377;50.666;9.150;2023-04-25T13:27:08;8.33;;;2.50;;
41693;SDS011;27377;50.666;9.150;2023-04-25T13:29:34;7.95;;;2.53;;
41693;SDS011;27377;50.666;9.150;2023-04-25T13:32:00;10.52;;;2.60;;
41693;SDS011;27377;50.666;9.150;2023-04-25T13:34:27;9.13;;;2.67;;
41693;SDS011;27377;50.666;9.150;2023-04-25T13:36:54;10.98;;;3.20;;
41693;SDS011;27377;50.666;9.150;2023-04-25T13:39:19;7.13;;;2.30;;
41693;SDS011;27377;50.666;9.150;2023-04-25T13:41:45;8.30;;;2.60;;
41693;SDS011;27377;50.666;9.150;2023-04-25T13:44:10;8.97;;;2.30;;
41693;SDS011;27377;50.666;9.150;2023-04-25T13:46:36;9.37;;;2.50;;
41693;SDS011;27377;50.666;9.150;2023-04-25T13:49:03;7.28;;;2.15;;
41693;SDS011;27377;50.666;9.150;2023-04-25T13:51:29;7.50;;;2.20;;
41693;SDS011;27377;50.666;9.150;2023-04-25T13:53:55;7.65;;;1.95;;
41693;SDS011;27377;50.666;9.150;2023-04-25T13:56:21;6.57;;;2.20;;
41693;SDS011;27377;50.666;9.150;2023-04-25T13:58:48;8.55;;;2.20;;
41693;SDS011;27377;50.666;9.150;2023-04-25T14:01:15;6.17;;;2.00;;
41693;SDS011;27377;50.666;9.150;2023-04-25T14:03:40;12.27;;;2.20;;
41693;SDS011;27377;50.666;9.150;2023-04-25T14:06:07;10.57;;;2.10;;
41693;SDS011;27377;50.666;9.150;2023-04-25T14:08:33;8.32;;;2.00;;
41693;SDS011;27377;50.666;9.150;2023-04-25T14:11:00;7.13;;;1.73;;
41693;SDS011;27377;50.666;9.150;2023-04-25T14:13:26;6.87;;;1.83;;
41693;SDS011;27377;50.666;9.150;2023-04-25T14:15:52;12.43;;;2.38;;
41693;SDS011;27377;50.666;9.150;2023-04-25T14:18:18;6.55;;;2.20;;
41693;SDS011;27377;50.666;9.150;2023-04-25T14:20:44;7.30;;;1.95;;
41693;SDS011;27377;50.666;9.150;2023-04-25T14:23:10;6.28;;;1.90;;
41693;SDS011;27377;50.666;9.150;2023-04-25T14:25:36;8.40;;;1.87;;
41693;SDS011;27377;50.666;9.150;2023-04-25T14:28:02;7.63;;;2.10;;
41693;SDS011;27377;50.666;9.150;2023-04-25T14:30:27;8.38;;;2.25;;
41693;SDS011;27377;50.666;9.150;2023-04-25T14:32:53;6.90;;;2.10;;
41693;SDS011;27377;50.666;9.150;2023-04-25T14:35:19;8.45;;;2.40;;
41693;SDS011;27377;50.666;9.150;2023-04-25T14:37:45;7.45;;;2.42;;
41693;SDS011;27377;50.666;9.150;2023-04-25T14:40:12;8.65;;;2.25;;
41693;SDS011;27377;50.666;9.150;2023-04-25T14:42:40;8.77;;;2.20;;
41693;SDS011;27377;50.666;9.150;2023-04-25T14:45:06;6.75;;;2.08;;
41693;SDS011;27377;50.666;9.150;2023-04-25T14:47:36;8.02;;;2.50;;
41693;SDS011;27377;50.666;9.150;2023-04-25T14:50:02;7.43;;;2.10;;
41693;SDS011;27377;50.666;9.150;2023-04-25T14:52:29;6.63;;;2.30;;